Time,TemperatureF,DewpointF,PressureIn,WindDirection,WindDirectionDegrees,WindSpeedMPH,WindSpeedGustMPH,Humidity,HourlyPrecipIn,Conditions,Clouds,dailyrainin,SolarRadiationWatts/m^2,SoftwareType,DateUTC
2013-02-23 00:03:00,48.4,21.1,29.62,North,356,1.7,1.8,33,-99.99,,,0.00,0,rob ver 1A,2013-02-23 07:03:00,
2013-02-23 00:08:00,46.8,22.0,29.62,East,93,5.4,6.2,37,-99.99,,,0.00,0,rob ver 1A,2013-02-23 07:08:00,
2013-02-23 00:13:00,47.1,22.3,29.62,ENE,78,3.6,4.4,37,-99.99,,,0.00,0,rob ver 1A,2013-02-23 07:13:00,
2013-02-23 00:18:00,47.4,22.0,29.62,ESE,115,3.5,4.0,36,-99.99,,,0.00,0,rob ver 1A,2013-02-23 07:18:00,
2013-02-23 00:23:00,46.8,22.4,29.62,SE,132,4.1,4.6,37,-99.99,,,0.00,0,rob ver 1A,2013-02-23 07:23:00,
2013-02-23 00:28:00,46.1,22.3,29.62,SE,125,2.9,3.3,38,-99.99,,,0.00,0,rob ver 1A,2013-02-23 07:28:00,
2013-02-23 00:33:00,46.4,22.7,29.62,East,81,2.4,2.7,38,-99.99,,,0.00,0,rob ver 1A,2013-02-23 07:33:00,
2013-02-23 00:38:00,47.6,22.6,29.62,ENE,58,3.8,4.8,36,-99.99,,,0.00,0,rob ver 1A,2013-02-23 07:38:00,
2013-02-23 00:43:00,48.9,22.0,29.62,NE,55,4.1,4.7,34,-99.99,,,0.00,0,rob ver 1A,2013-02-23 07:43:00,
2013-02-23 00:48:00,48.9,21.9,29.62,NE,55,4.7,5.1,34,-99.99,,,0.00,0,rob ver 1A,2013-02-23 07:48:00,
2013-02-23 00:53:00,48.8,21.9,29.62,NE,53,3.8,4.2,34,-99.99,,,0.00,0,rob ver 1B,2013-02-23 07:53:00,
2013-02-23 00:59:00,48.1,22.2,29.62,NE,53,2.7,3.1,35,-99.99,,,0.00,0,rob ver 1A,2013-02-23 07:59:00,
2013-02-23 01:04:00,47.4,22.3,29.62,SSE,147,0.9,1.3,36,-99.99,,,0.00,0,rob ver 1A,2013-02-23 08:04:00,
2013-02-23 01:09:00,46.9,22.3,29.62,ENE,78,0.6,0.9,37,-99.99,,,0.00,0,rob ver 1A,2013-02-23 08:09:00,
2013-02-23 01:14:00,46.8,22.5,29.62,North,5,1.3,1.3,38,-99.99,,,0.00,0,rob ver 1A,2013-02-23 08:14:00,
2013-02-23 01:19:00,46.7,22.5,29.62,North,7,1.4,1.9,37,-99.99,,,0.00,0,rob ver 1A,2013-02-23 08:19:00,
2013-02-23 01:24:00,46.9,22.5,29.62,NE,48,2.5,2.9,37,-99.99,,,0.00,0,rob ver 1A,2013-02-23 08:24:00,
2013-02-23 01:29:00,45.9,22.4,29.62,SSE,157,0.8,1.2,39,-99.99,,,0.00,0,rob ver 1A,2013-02-23 08:29:00,
2013-02-23 01:34:00,45.6,22.6,29.62,ESE,103,1.8,2.2,39,-99.99,,,0.00,0,rob ver 1A,2013-02-23 08:34:00,
2013-02-23 01:39:00,45.1,22.5,29.62,North,4,1.5,1.7,40,-99.99,,,0.00,0,rob ver 1A,2013-02-23 08:39:00,
2013-02-23 01:44:00,45.8,22.5,29.62,North,349,2.0,2.1,39,-99.99,,,0.00,0,rob ver 1A,2013-02-23 08:44:00,
2013-02-23 01:49:00,45.9,22.5,29.62,NNW,332,1.5,1.7,39,-99.99,,,0.00,0,rob ver 1A,2013-02-23 08:49:00,
2013-02-23 01:54:00,45.5,22.4,29.62,NNW,343,2.5,2.6,39,-99.99,,,0.00,0,rob ver 1A,2013-02-23 08:54:00,
2013-02-23 01:59:00,45.1,22.2,29.62,NE,46,2.9,3.9,39,-99.99,,,0.00,0,rob ver 1A,2013-02-23 08:59:00,
2013-02-23 02:04:00,47.8,21.2,29.62,NE,44,2.1,2.5,34,-99.99,,,0.00,0,rob ver 1A,2013-02-23 09:04:00,
2013-02-23 02:09:00,50.2,21.1,29.62,NE,49,1.4,1.5,31,-99.99,,,0.00,0,rob ver 1A,2013-02-23 09:09:00,
2013-02-23 02:14:00,50.5,21.2,29.59,East,84,0.5,0.6,31,-99.99,,,0.00,0,rob ver 1A,2013-02-23 09:14:00,
2013-02-23 02:19:00,49.7,21.1,29.59,West,264,0.3,0.5,32,-99.99,,,0.00,0,rob ver 1A,2013-02-23 09:19:00,
2013-02-23 02:24:00,49.2,21.1,29.59,North,355,1.9,2.1,32,-99.99,,,0.00,0,rob ver 1A,2013-02-23 09:24:00,
2013-02-23 02:29:00,47.8,21.0,29.59,NE,47,4.3,4.7,34,-99.99,,,0.00,0,rob ver 1A,2013-02-23 09:29:00,
2013-02-23 02:34:00,45.7,21.4,29.59,NNE,27,4.0,4.4,38,-99.99,,,0.00,0,rob ver 1A,2013-02-23 09:34:00,
2013-02-23 02:39:00,45.4,21.7,29.59,NE,44,4.2,4.8,38,-99.99,,,0.00,0,rob ver 1A,2013-02-23 09:39:00,
2013-02-23 02:44:00,45.1,22.0,29.59,NE,43,4.6,5.3,39,-99.99,,,0.00,0,rob ver 1A,2013-02-23 09:44:00,
2013-02-23 02:49:00,44.8,22.2,29.59,NE,36,3.3,4.1,40,-99.99,,,0.00,0,rob ver 1A,2013-02-23 09:49:00,
2013-02-23 02:54:00,44.7,22.1,29.59,NNE,15,5.1,5.7,40,-99.99,,,0.00,0,rob ver 1A,2013-02-23 09:54:00,
2013-02-23 02:59:00,44.5,22.2,29.59,NNE,16,4.2,4.8,41,-99.99,,,0.00,0,rob ver 1A,2013-02-23 09:59:00,
2013-02-23 03:05:00,43.8,22.3,29.59,NE,39,2.7,3.1,42,-99.99,,,0.00,0,rob ver 1A,2013-02-23 10:05:00,
2013-02-23 03:10:00,45.0,22.4,29.59,NNE,30,4.4,5.1,40,-99.99,,,0.00,0,rob ver 1A,2013-02-23 10:10:00,
2013-02-23 03:15:00,45.0,22.1,29.56,North,8,2.6,3.3,40,-99.99,,,0.00,0,rob ver 1A,2013-02-23 10:15:00,
2013-02-23 03:20:00,44.5,22.0,29.56,NNE,13,4.3,4.5,40,-99.99,,,0.00,0,rob ver 1A,2013-02-23 10:20:00,
2013-02-23 03:25:00,44.7,22.1,29.56,NNE,33,4.7,6.6,40,-99.99,,,0.00,0,rob ver 1A,2013-02-23 10:25:00,
2013-02-23 03:30:00,44.2,22.2,29.56,NE,35,3.1,3.5,41,-99.99,,,0.00,0,rob ver 1A,2013-02-23 10:30:00,
2013-02-23 03:35:00,43.6,22.4,29.56,NE,36,4.4,4.9,42,-99.99,,,0.00,0,rob ver 1A,2013-02-23 10:35:00,
2013-02-23 03:40:00,44.1,22.3,29.56,NE,42,5.8,6.7,41,-99.99,,,0.00,0,rob ver 1A,2013-02-23 10:40:00,
2013-02-23 03:45:00,44.1,22.4,29.56,NNE,31,6.6,7.4,41,-99.99,,,0.00,0,rob ver 1A,2013-02-23 10:45:00,
2013-02-23 03:50:00,44.3,22.3,29.56,NE,44,5.2,6.5,41,-99.99,,,0.00,0,rob ver 1A,2013-02-23 10:50:00,
2013-02-23 03:55:00,44.2,22.3,29.56,NE,37,4.9,5.4,41,-99.99,,,0.00,0,rob ver 1A,2013-02-23 10:55:00,
2013-02-23 04:00:00,44.4,22.3,29.56,NNE,26,6.8,7.5,40,-99.99,,,0.00,0,rob ver 1A,2013-02-23 11:00:00,
2013-02-23 04:05:00,44.9,22.0,29.56,NNE,29,5.3,6.1,39,-99.99,,,0.00,0,rob ver 1A,2013-02-23 11:05:00,
2013-02-23 04:10:00,45.1,21.9,29.56,NNE,25,7.2,8.2,39,-99.99,,,0.00,0,rob ver 1A,2013-02-23 11:10:00,
2013-02-23 04:15:00,45.1,21.8,29.56,NNE,32,5.0,6.3,39,-99.99,,,0.00,0,rob ver 1A,2013-02-23 11:15:00,
2013-02-23 04:20:00,45.1,21.7,29.56,NNE,21,7.7,8.1,39,-99.99,,,0.00,0,rob ver 1A,2013-02-23 11:20:00,
2013-02-23 04:25:00,45.3,21.5,29.56,NNE,15,6.8,7.6,38,-99.99,,,0.00,0,rob ver 1A,2013-02-23 11:25:00,
2013-02-23 04:30:00,45.7,21.2,29.56,North,9,6.5,7.0,37,-99.99,,,0.00,0,rob ver 1A,2013-02-23 11:30:00,
2013-02-23 04:35:00,46.1,20.9,29.56,NNE,12,6.9,7.5,36,-99.99,,,0.00,0,rob ver 1A,2013-02-23 11:35:00,
2013-02-23 04:40:00,46.4,20.6,29.56,NNE,15,6.8,7.3,35,-99.99,,,0.00,0,rob ver 1A,2013-02-23 11:40:00,
2013-02-23 04:45:00,46.4,20.6,29.56,NNE,16,6.5,7.4,35,-99.99,,,0.00,0,rob ver 1A,2013-02-23 11:45:00,
2013-02-23 04:50:00,46.4,20.5,29.56,NNE,23,5.8,6.3,35,-99.99,,,0.00,0,rob ver 1A,2013-02-23 11:50:00,
2013-02-23 04:55:00,46.3,20.6,29.56,NNE,32,5.3,5.7,35,-99.99,,,0.00,0,rob ver 1A,2013-02-23 11:55:00,
2013-02-23 05:00:00,46.3,20.5,29.56,NNE,24,6.1,6.5,35,-99.99,,,0.00,0,rob ver 1A,2013-02-23 12:00:00,
2013-02-23 05:05:00,46.2,20.5,29.56,NNE,22,4.9,5.4,35,-99.99,,,0.00,0,rob ver 1A,2013-02-23 12:05:00,
2013-02-23 05:11:00,45.3,20.9,29.56,NE,37,3.8,4.2,37,-99.99,,,0.00,0,rob ver 1A,2013-02-23 12:11:00,
2013-02-23 05:16:00,45.6,21.0,29.56,NE,39,4.3,5.1,37,-99.99,,,0.00,0,rob ver 1A,2013-02-23 12:16:00,
2013-02-23 05:21:00,45.1,21.0,29.56,NNE,33,4.4,5.0,38,-99.99,,,0.00,0,rob ver 1B,2013-02-23 12:21:00,
2013-02-23 05:26:00,45.2,21.0,29.56,NE,44,5.5,6.0,37,-99.99,,,0.00,0,rob ver 1A,2013-02-23 12:26:00,
2013-02-23 05:31:00,45.0,21.1,29.56,North,11,2.8,4.3,38,-99.99,,,0.00,0,rob ver 1A,2013-02-23 12:31:00,
2013-02-23 05:36:00,44.9,20.9,29.56,North,352,3.8,4.9,37,-99.99,,,0.00,0,rob ver 1A,2013-02-23 12:36:00,
2013-02-23 05:41:00,44.9,21.2,29.56,WNW,300,2.4,2.6,38,-99.99,,,0.00,0,rob ver 1A,2013-02-23 12:41:00,
2013-02-23 05:46:00,43.5,21.4,29.56,NW,315,1.7,1.9,41,-99.99,,,0.00,0,rob ver 1A,2013-02-23 12:46:00,
2013-02-23 05:51:00,42.5,21.6,29.56,NW,304,2.3,2.6,43,-99.99,,,0.00,0,rob ver 1A,2013-02-23 12:51:00,
2013-02-23 05:56:00,42.0,21.8,29.56,NW,323,2.1,2.4,44,-99.99,,,0.00,0,rob ver 1A,2013-02-23 12:56:00,
2013-02-23 06:01:00,41.7,22.0,29.56,NNW,344,2.8,3.1,45,-99.99,,,0.00,0,rob ver 1B,2013-02-23 13:01:00,
2013-02-23 06:06:00,42.4,21.6,29.56,NNW,332,2.8,3.0,43,-99.99,,,0.00,0,rob ver 1A,2013-02-23 13:06:00,
2013-02-23 06:11:00,42.3,21.6,29.56,North,349,3.2,3.4,43,-99.99,,,0.00,0,rob ver 1A,2013-02-23 13:11:00,
2013-02-23 06:16:00,41.7,21.7,29.56,NNW,333,2.8,3.1,44,-99.99,,,0.00,0,rob ver 1A,2013-02-23 13:16:00,
2013-02-23 06:21:00,41.9,21.7,29.56,West,279,2.3,3.0,44,-99.99,,,0.00,0,rob ver 1A,2013-02-23 13:21:00,
2013-02-23 06:26:00,41.7,22.0,29.56,WNW,293,2.7,3.0,45,-99.99,,,0.00,0,rob ver 1A,2013-02-23 13:26:00,
2013-02-23 06:31:00,41.4,22.1,29.56,West,271,3.1,3.6,46,-99.99,,,0.00,0,rob ver 1A,2013-02-23 13:31:00,
2013-02-23 06:36:00,40.6,22.0,29.56,SW,224,2.0,2.2,47,-99.99,,,0.00,0,rob ver 1A,2013-02-23 13:36:00,
2013-02-23 06:41:00,40.0,22.2,29.56,South,189,3.5,4.0,48,-99.99,,,0.00,0,rob ver 1A,2013-02-23 13:41:00,
2013-02-23 06:46:00,40.0,22.2,29.56,South,190,1.9,2.2,48,-99.99,,,0.00,0,rob ver 1A,2013-02-23 13:46:00,
2013-02-23 06:51:00,40.0,22.3,29.56,SW,226,1.6,1.9,48,-99.99,,,0.00,0,rob ver 1A,2013-02-23 13:51:00,
2013-02-23 06:56:00,40.0,22.2,29.56,SW,221,0.9,1.1,48,-99.99,,,0.00,.329,rob ver 1A,2013-02-23 13:56:00,
2013-02-23 07:01:00,39.9,22.4,29.56,South,185,0.5,0.7,49,-99.99,,,0.00,.987,rob ver 1A,2013-02-23 14:01:00,
2013-02-23 07:06:00,40.5,22.3,29.56,SSE,150,1.9,2.3,47,-99.99,,,0.00,2.303,rob ver 1A,2013-02-23 14:06:00,
2013-02-23 07:11:00,40.5,22.0,29.56,SE,133,3.8,4.1,47,-99.99,,,0.00,4.277,rob ver 1A,2013-02-23 14:11:00,
2013-02-23 07:17:00,40.2,22.0,29.56,East,94,2.5,2.7,47,-99.99,,,0.00,12.17,rob ver 1A,2013-02-23 14:17:00,
2013-02-23 07:22:00,40.1,22.1,29.56,East,98,2.4,2.6,48,-99.99,,,0.00,23.69,rob ver 1A,2013-02-23 14:22:00,
2013-02-23 07:27:00,39.9,22.2,29.56,ESE,103,3.5,3.8,48,-99.99,,,0.00,35.2,rob ver 1A,2013-02-23 14:27:00,
2013-02-23 07:32:00,39.9,22.4,29.56,East,91,3.6,3.9,49,-99.99,,,0.00,47.05,rob ver 1A,2013-02-23 14:32:00,
2013-02-23 07:37:00,40.6,22.4,29.56,ENE,78,3.3,3.7,47,-99.99,,,0.00,58.89,rob ver 1A,2013-02-23 14:37:00,
2013-02-23 07:42:00,41.0,22.3,29.56,ENE,59,4.1,4.9,46,-99.99,,,0.00,72,rob ver 1A,2013-02-23 14:42:00,
2013-02-23 07:47:00,41.4,22.5,29.56,NE,49,3.8,4.8,46,-99.99,,,0.00,85.7,rob ver 1A,2013-02-23 14:47:00,
2013-02-23 07:52:00,41.9,22.6,29.56,NE,47,3.8,4.8,45,-99.99,,,0.00,99,rob ver 1A,2013-02-23 14:52:00,
2013-02-23 07:57:00,42.5,22.7,29.56,NE,42,5.1,6.1,44,-99.99,,,0.00,114.2,rob ver 1A,2013-02-23 14:57:00,
2013-02-23 08:02:00,43.1,22.7,29.56,NE,34,5.3,6.0,44,-99.99,,,0.00,129.6,rob ver 1B,2013-02-23 15:02:00,
2013-02-23 08:07:00,43.6,22.9,29.56,NE,35,5.3,6.0,43,-99.99,,,0.00,145.4,rob ver 1A,2013-02-23 15:07:00,
2013-02-23 08:12:00,44.4,22.8,29.56,NE,37,6.2,7.2,42,-99.99,,,0.00,161.5,rob ver 1A,2013-02-23 15:12:00,
2013-02-23 08:17:00,44.8,23.0,29.56,NE,46,7.0,8.7,41,-99.99,,,0.00,178.6,rob ver 1A,2013-02-23 15:17:00,
2013-02-23 08:22:00,45.7,23.3,29.56,NE,48,5.1,7.0,41,-99.99,,,0.00,195.1,rob ver 1A,2013-02-23 15:22:00,
2013-02-23 08:27:00,46.6,23.4,29.56,NE,44,5.9,7.6,39,-99.99,,,0.00,211.9,rob ver 1B,2013-02-23 15:27:00,
2013-02-23 08:32:00,47.6,23.9,29.56,NE,51,5.9,9.0,38,-99.99,,,0.00,229,rob ver 1A,2013-02-23 15:32:00,
2013-02-23 08:37:00,48.7,24.5,29.56,NE,45,5.8,7.3,38,-99.99,,,0.00,246.4,rob ver 1A,2013-02-23 15:37:00,
2013-02-23 08:42:00,49.0,24.9,29.56,NE,51,6.0,7.9,38,-99.99,,,0.00,263.8,rob ver 1A,2013-02-23 15:42:00,
2013-02-23 08:47:00,49.5,24.9,29.56,NE,45,5.2,6.5,37,-99.99,,,0.00,281.2,rob ver 1A,2013-02-23 15:47:00,
2013-02-23 08:52:00,50.1,25.1,29.56,ENE,57,4.3,5.4,37,-99.99,,,0.00,297.3,rob ver 1B,2013-02-23 15:52:00,
2013-02-23 08:57:00,51.0,25.0,29.56,ENE,59,4.8,5.6,35,-99.99,,,0.00,315,rob ver 1A,2013-02-23 15:57:00,
2013-02-23 09:02:00,52.1,24.8,29.56,NE,53,5.5,7.3,33,-99.99,,,0.00,332.1,rob ver 1A,2013-02-23 16:02:00,
2013-02-23 09:08:00,53.0,24.4,29.56,NE,53,6.6,8.3,32,-99.99,,,0.00,352.2,rob ver 1A,2013-02-23 16:08:00,
2013-02-23 09:13:00,53.8,24.1,29.56,ENE,61,7.0,8.8,31,-99.99,,,0.00,369.2,rob ver 1A,2013-02-23 16:13:00,
2013-02-23 09:18:00,54.0,24.0,29.56,ENE,71,7.0,8.8,31,-99.99,,,0.00,381.7,rob ver 1B,2013-02-23 16:18:00,
2013-02-23 09:23:00,54.4,23.7,29.56,East,87,8.2,10.1,30,-99.99,,,0.00,402.4,rob ver 1A,2013-02-23 16:23:00,
2013-02-23 09:28:00,54.6,23.5,29.53,East,86,9.9,12.1,29,-99.99,,,0.00,418.8,rob ver 1A,2013-02-23 16:28:00,
2013-02-23 09:33:00,54.8,23.5,29.53,East,81,9.5,11.6,29,-99.99,,,0.00,434.4,rob ver 1B,2013-02-23 16:33:00,
2013-02-23 09:38:00,55.1,23.6,29.53,East,89,9.0,10.9,29,-99.99,,,0.00,450.3,rob ver 1A,2013-02-23 16:38:00,
2013-02-23 09:43:00,55.7,23.6,29.56,East,92,9.1,10.2,28,-99.99,,,0.00,466.1,rob ver 1A,2013-02-23 16:43:00,
2013-02-23 09:48:00,55.8,23.7,29.56,East,98,8.8,10.6,28,-99.99,,,0.00,481.2,rob ver 1A,2013-02-23 16:48:00,
2013-02-23 09:53:00,56.4,23.6,29.53,East,91,7.1,9.5,27,-99.99,,,0.00,495.4,rob ver 1A,2013-02-23 16:53:00,
2013-02-23 09:58:00,56.9,23.3,29.53,East,79,7.8,10.0,27,-99.99,,,0.00,510.2,rob ver 1B,2013-02-23 16:58:00,
2013-02-23 10:03:00,57.5,23.6,29.53,East,95,8.0,9.4,26,-99.99,,,0.00,524.7,rob ver 1A,2013-02-23 17:03:00,
2013-02-23 10:08:00,57.9,23.3,29.53,ENE,76,6.5,8.3,25,-99.99,,,0.00,539.3,rob ver 1A,2013-02-23 17:08:00,
2013-02-23 10:13:00,58.5,23.2,29.53,East,80,8.3,10.6,25,-99.99,,,0.00,553.4,rob ver 1A,2013-02-23 17:13:00,
2013-02-23 10:18:00,58.6,22.7,29.53,East,83,7.8,9.9,24,-99.99,,,0.00,565.7,rob ver 1A,2013-02-23 17:18:00,
2013-02-23 10:23:00,59.3,23.3,29.53,East,91,8.1,9.6,24,-99.99,,,0.00,579.5,rob ver 1B,2013-02-23 17:23:00,
2013-02-23 10:28:00,59.6,22.5,29.53,ENE,77,7.3,9.6,23,-99.99,,,0.00,591.8,rob ver 1A,2013-02-23 17:28:00,
2013-02-23 10:33:00,59.8,22.5,29.53,ESE,104,9.6,11.9,23,-99.99,,,0.00,603.6,rob ver 1A,2013-02-23 17:33:00,
2013-02-23 10:38:00,59.8,22.8,29.53,ESE,116,8.7,10.5,23,-99.99,,,0.00,615.4,rob ver 1A,2013-02-23 17:38:00,
2013-02-23 10:43:00,60.3,24.1,29.53,SE,127,5.0,7.9,26,-99.99,,,0.00,625.4,rob ver 1A,2013-02-23 17:43:00,
2013-02-23 10:48:00,59.3,26.2,29.53,SSE,159,6.3,7.7,28,-99.99,,,0.00,636.7,rob ver 1A,2013-02-23 17:48:00,
2013-02-23 10:53:00,59.2,26.6,29.53,SE,141,4.2,6.6,29,-99.99,,,0.00,644.4,rob ver 1A,2013-02-23 17:53:00,
2013-02-23 10:58:00,60.0,26.2,29.53,SSE,160,5.5,8.9,27,-99.99,,,0.00,654.8,rob ver 1A,2013-02-23 17:58:00,
2013-02-23 11:03:00,59.9,26.2,29.53,SSE,149,5.4,7.9,27,-99.99,,,0.00,667,rob ver 1A,2013-02-23 18:03:00,
2013-02-23 11:08:00,60.4,27.6,29.53,SSE,166,5.0,7.6,27,-99.99,,,0.00,676.6,rob ver 1A,2013-02-23 18:08:00,
2013-02-23 11:13:00,60.3,27.5,29.53,SSE,157,6.6,9.3,28,-99.99,,,0.00,686,rob ver 1A,2013-02-23 18:13:00,
2013-02-23 11:19:00,60.4,27.5,29.53,SE,126,5.4,7.4,27,-99.99,,,0.00,696.3,rob ver 1A,2013-02-23 18:19:00,
2013-02-23 11:24:00,61.0,28.3,29.53,South,172,5.2,8.1,28,-99.99,,,0.00,706,rob ver 1A,2013-02-23 18:24:00,
2013-02-23 11:29:00,60.9,27.7,29.53,SSE,150,6.4,7.9,26,-99.99,,,0.00,711,rob ver 1B,2013-02-23 18:29:00,
2013-02-23 11:34:00,61.5,28.2,29.53,SSE,158,6.8,8.8,27,-99.99,,,0.00,721,rob ver 1A,2013-02-23 18:34:00,
2013-02-23 11:39:00,62.1,27.1,29.53,SE,138,4.1,5.8,26,-99.99,,,0.00,728,rob ver 1A,2013-02-23 18:39:00,
2013-02-23 11:44:00,62.0,25.7,29.53,SSE,151,6.0,7.6,25,-99.99,,,0.00,737,rob ver 1B,2013-02-23 18:44:00,
2013-02-23 11:49:00,62.5,25.5,29.53,SE,129,5.0,7.3,22,-99.99,,,0.00,743,rob ver 1A,2013-02-23 18:49:00,
2013-02-23 11:54:00,63.0,25.5,29.53,SE,142,2.2,4.5,24,-99.99,,,0.00,748,rob ver 1A,2013-02-23 18:54:00,
2013-02-23 11:59:00,63.5,19.7,29.53,South,186,4.8,6.0,18,-99.99,,,0.00,754,rob ver 1A,2013-02-23 18:59:00,
2013-02-23 12:04:00,63.9,22.2,29.53,SE,125,3.2,4.6,19,-99.99,,,0.00,760,rob ver 1A,2013-02-23 19:04:00,
2013-02-23 12:09:00,63.7,21.3,29.53,SE,131,7.6,10.2,19,-99.99,,,0.00,762,rob ver 1A,2013-02-23 19:09:00,
2013-02-23 12:14:00,64.5,19.5,29.50,SSE,151,6.5,9.1,16,-99.99,,,0.00,766,rob ver 1A,2013-02-23 19:14:00,
2013-02-23 12:19:00,63.9,19.7,29.50,ESE,115,7.5,10.9,18,-99.99,,,0.00,770,rob ver 1A,2013-02-23 19:19:00,
2013-02-23 12:24:00,63.8,21.5,29.50,ESE,116,8.3,12.5,18,-99.99,,,0.00,773,rob ver 1A,2013-02-23 19:24:00,
2013-02-23 12:29:00,64.5,18.8,29.50,ESE,117,8.4,11.0,17,-99.99,,,0.00,778,rob ver 1A,2013-02-23 19:29:00,
2013-02-23 12:34:00,64.5,16.5,29.47,SE,142,9.5,14.4,14,-99.99,,,0.00,780,rob ver 1A,2013-02-23 19:34:00,
2013-02-23 12:39:00,64.5,19.1,29.47,SE,139,6.8,8.5,17,-99.99,,,0.00,780,rob ver 1A,2013-02-23 19:39:00,
2013-02-23 12:44:00,65.1,17.1,29.47,SE,131,10.8,13.7,14,-99.99,,,0.00,784,rob ver 1A,2013-02-23 19:44:00,
2013-02-23 12:49:00,65.1,16.9,29.47,ESE,115,10.4,13.0,15,-99.99,,,0.00,784,rob ver 1B,2013-02-23 19:49:00,
2013-02-23 12:54:00,65.2,16.3,29.47,SE,137,6.9,9.1,15,-99.99,,,0.00,787,rob ver 1A,2013-02-23 19:54:00,
2013-02-23 12:59:00,65.5,16.1,29.44,ESE,111,9.9,13.6,15,-99.99,,,0.00,786,rob ver 1A,2013-02-23 19:59:00,
2013-02-23 13:04:00,65.4,16.3,29.44,SE,126,9.1,11.7,15,-99.99,,,0.00,787,rob ver 1A,2013-02-23 20:04:00,
2013-02-23 13:09:00,67.0,19.5,29.44,SE,135,9.5,13.0,15,-99.99,,,0.00,783,rob ver 1A,2013-02-23 20:09:00,
2013-02-23 13:14:00,66.1,16.3,29.44,ESE,117,9.8,14.2,14,-99.99,,,0.00,783,rob ver 1A,2013-02-23 20:14:00,
2013-02-23 13:19:00,66.6,15.7,29.44,SSE,156,10.4,13.9,13,-99.99,,,0.00,780,rob ver 1A,2013-02-23 20:19:00,
2013-02-23 13:24:00,65.6,18.9,29.44,SE,145,9.3,12.1,16,-99.99,,,0.00,780,rob ver 1A,2013-02-23 20:24:00,
2013-02-23 13:30:00,66.0,18.3,29.44,SSE,166,8.7,11.2,15,-99.99,,,0.00,776,rob ver 1A,2013-02-23 20:30:00,
2013-02-23 13:35:00,66.3,18.6,29.44,South,185,8.2,10.8,15,-99.99,,,0.00,773,rob ver 1A,2013-02-23 20:35:00,
2013-02-23 13:40:00,66.0,19.2,29.44,SE,131,6.9,10.8,16,-99.99,,,0.00,768,rob ver 1A,2013-02-23 20:40:00,
2013-02-23 13:45:00,66.1,18.5,29.41,South,182,7.0,9.4,16,-99.99,,,0.00,763,rob ver 1A,2013-02-23 20:45:00,
2013-02-23 13:50:00,66.6,20.2,29.41,South,181,7.7,10.0,16,-99.99,,,0.00,758,rob ver 1A,2013-02-23 20:50:00,
2013-02-23 13:55:00,67.0,20.9,29.41,SSE,160,8.1,11.8,17,-99.99,,,0.00,753,rob ver 1A,2013-02-23 20:55:00,
2013-02-23 14:00:00,66.9,21.1,29.41,SSE,166,10.0,15.6,17,-99.99,,,0.00,746,rob ver 1A,2013-02-23 21:00:00,
2013-02-23 14:05:00,66.8,21.6,29.41,SSE,159,5.4,8.3,17,-99.99,,,0.00,739,rob ver 1A,2013-02-23 21:05:00,
2013-02-23 14:10:00,67.2,21.2,29.41,ESE,121,4.4,7.1,17,-99.99,,,0.00,731,rob ver 1A,2013-02-23 21:10:00,
2013-02-23 14:15:00,67.8,20.8,29.38,South,187,2.6,4.8,16,-99.99,,,0.00,724,rob ver 1A,2013-02-23 21:15:00,
2013-02-23 14:20:00,67.4,20.9,29.38,SE,140,6.8,10.2,17,-99.99,,,0.00,718,rob ver 1A,2013-02-23 21:20:00,
2013-02-23 14:25:00,67.1,21.4,29.38,SE,145,10.2,13.9,17,-99.99,,,0.00,712,rob ver 1A,2013-02-23 21:25:00,
2013-02-23 14:30:00,67.6,21.5,29.38,SSE,152,5.9,11.1,16,-99.99,,,0.00,704,rob ver 1A,2013-02-23 21:30:00,
2013-02-23 14:35:00,67.2,20.9,29.38,SSW,211,4.7,6.3,16,-99.99,,,0.00,695.6,rob ver 1A,2013-02-23 21:35:00,
2013-02-23 14:40:00,67.1,20.8,29.38,SSE,147,6.9,8.3,16,-99.99,,,0.00,685.8,rob ver 1A,2013-02-23 21:40:00,
2013-02-23 14:45:00,67.9,21.4,29.38,South,191,6.2,10.5,16,-99.99,,,0.00,676.4,rob ver 1A,2013-02-23 21:45:00,
2013-02-23 14:50:00,67.7,20.6,29.38,SE,139,3.7,8.1,16,-99.99,,,0.00,668,rob ver 1A,2013-02-23 21:50:00,
2013-02-23 14:55:00,68.4,20.3,29.35,SE,143,7.8,10.1,15,-99.99,,,0.00,658,rob ver 1A,2013-02-23 21:55:00,
2013-02-23 15:00:00,69.2,17.8,29.35,SSE,161,13.3,16.1,14,-99.99,,,0.00,646.6,rob ver 1A,2013-02-23 22:00:00,
2013-02-23 15:05:00,68.6,20.0,29.35,SSW,196,8.7,13.2,15,-99.99,,,0.00,635.8,rob ver 1A,2013-02-23 22:05:00,
2013-02-23 15:10:00,68.7,18.3,29.35,SSE,147,14.6,18.3,13,-99.99,,,0.00,627.3,rob ver 1A,2013-02-23 22:10:00,
2013-02-23 15:15:00,69.4,16.2,29.35,South,183,13.9,18.5,12,-99.99,,,0.00,615.8,rob ver 1A,2013-02-23 22:15:00,
2013-02-23 15:20:00,69.2,16.2,29.35,SSW,197,11.9,16.4,13,-99.99,,,0.00,602.7,rob ver 1A,2013-02-23 22:20:00,
2013-02-23 15:26:00,69.3,15.9,29.35,SSE,150,13.6,15.8,12,-99.99,,,0.00,589.4,rob ver 1A,2013-02-23 22:26:00,
2013-02-23 15:31:00,69.4,16.1,29.35,SSW,209,14.0,18.3,12,-99.99,,,0.00,573.5,rob ver 1A,2013-02-23 22:31:00,
2013-02-23 15:36:00,69.5,16.0,29.35,South,171,11.2,13.7,12,-99.99,,,0.00,560.2,rob ver 1A,2013-02-23 22:36:00,
2013-02-23 15:41:00,69.4,15.6,29.35,South,178,9.6,13.1,12,-99.99,,,0.00,548.9,rob ver 1B,2013-02-23 22:41:00,
2013-02-23 15:46:00,69.5,15.9,29.35,South,188,12.0,14.2,12,-99.99,,,0.00,532.8,rob ver 1A,2013-02-23 22:46:00,
2013-02-23 15:51:00,69.7,16.7,29.35,South,184,10.0,12.2,12,-99.99,,,0.00,519.5,rob ver 1A,2013-02-23 22:51:00,
2013-02-23 15:56:00,69.2,16.4,29.32,South,170,10.2,12.5,13,-99.99,,,0.00,501.5,rob ver 1A,2013-02-23 22:56:00,
2013-02-23 16:01:00,69.8,17.0,29.32,South,186,13.5,15.7,13,-99.99,,,0.00,488.2,rob ver 1A,2013-02-23 23:01:00,
2013-02-23 16:06:00,69.2,16.7,29.32,SSW,198,9.3,11.3,13,-99.99,,,0.00,473.3,rob ver 1A,2013-02-23 23:06:00,
2013-02-23 16:11:00,69.8,16.6,29.32,South,188,14.2,17.5,12,-99.99,,,0.00,457.7,rob ver 1A,2013-02-23 23:11:00,
2013-02-23 16:16:00,70.1,16.6,29.32,South,171,9.5,11.7,12,-99.99,,,0.00,442,rob ver 1A,2013-02-23 23:16:00,
2013-02-23 16:21:00,69.5,16.5,29.32,South,176,11.7,14.9,13,-99.99,,,0.00,424.9,rob ver 1B,2013-02-23 23:21:00,
2013-02-23 16:26:00,69.8,16.5,29.32,SSE,167,12.9,15.8,12,-99.99,,,0.00,407.5,rob ver 1A,2013-02-23 23:26:00,
2013-02-23 16:31:00,69.7,17.0,29.32,SSE,158,12.3,15.2,13,-99.99,,,0.00,391,rob ver 1A,2013-02-23 23:31:00,
2013-02-23 16:36:00,69.7,17.0,29.32,SSW,193,10.6,12.7,13,-99.99,,,0.00,375.2,rob ver 1A,2013-02-23 23:36:00,
2013-02-23 16:41:00,69.5,16.7,29.32,South,185,10.6,13.2,13,-99.99,,,0.00,356.5,rob ver 1A,2013-02-23 23:41:00,
2013-02-23 16:46:00,69.9,17.2,29.32,South,187,11.1,14.9,13,-99.99,,,0.00,340.3,rob ver 1A,2013-02-23 23:46:00,
2013-02-23 16:51:00,69.3,16.7,29.32,SSE,166,9.2,10.6,13,-99.99,,,0.00,321.1,rob ver 1A,2013-02-23 23:51:00,
2013-02-23 16:56:00,69.8,17.5,29.29,SSW,198,11.2,13.2,13,-99.99,,,0.00,303.1,rob ver 1A,2013-02-23 23:56:00,
2013-02-23 17:01:00,69.5,17.3,29.29,South,169,6.9,8.7,13,-99.99,,,0.00,285.8,rob ver 1A,2013-02-24 00:01:00,
2013-02-23 17:06:00,69.8,17.5,29.29,South,187,10.9,14.5,13,-99.99,,,0.00,268.6,rob ver 1A,2013-02-24 00:06:00,
2013-02-23 17:11:00,69.7,17.5,29.29,SSE,168,9.0,11.2,13,-99.99,,,0.00,251.6,rob ver 1A,2013-02-24 00:11:00,
2013-02-23 17:16:00,69.5,17.8,29.29,South,177,13.1,15.3,13,-99.99,,,0.00,232.1,rob ver 1A,2013-02-24 00:16:00,
2013-02-23 17:21:00,69.7,17.9,29.29,South,175,10.0,12.8,13,-99.99,,,0.00,216.5,rob ver 1A,2013-02-24 00:21:00,
2013-02-23 17:26:00,69.9,17.6,29.29,South,179,9.0,10.8,13,-99.99,,,0.00,197.8,rob ver 1A,2013-02-24 00:26:00,
2013-02-23 17:31:00,69.3,17.1,29.29,South,176,10.0,12.9,13,-99.99,,,0.00,179.1,rob ver 1A,2013-02-24 00:31:00,
2013-02-23 17:36:00,69.2,17.1,29.29,SSE,161,7.7,9.4,13,-99.99,,,0.00,163.2,rob ver 1A,2013-02-24 00:36:00,
2013-02-23 17:42:00,69.4,17.8,29.29,South,181,7.9,10.2,13,-99.99,,,0.00,144.3,rob ver 1A,2013-02-24 00:42:00,
2013-02-23 17:47:00,69.5,17.7,29.29,South,181,9.8,12.0,13,-99.99,,,0.00,123.3,rob ver 1A,2013-02-24 00:47:00,
2013-02-23 17:52:00,69.5,18.2,29.29,SSW,192,7.1,9.1,13,-99.99,,,0.00,109.9,rob ver 1B,2013-02-24 00:52:00,
2013-02-23 17:57:00,69.1,18.0,29.29,South,190,9.2,12.3,14,-99.99,,,0.00,88.1,rob ver 1A,2013-02-24 00:57:00,
2013-02-23 18:02:00,68.7,18.2,29.29,SSW,203,9.8,11.4,14,-99.99,,,0.00,74.1,rob ver 1A,2013-02-24 01:02:00,
2013-02-23 18:07:00,68.6,18.2,29.29,SSW,199,7.0,8.8,14,-99.99,,,0.00,59.7,rob ver 1A,2013-02-24 01:07:00,
2013-02-23 18:12:00,68.3,17.9,29.29,South,191,7.4,8.5,14,-99.99,,,0.00,45.27,rob ver 1A,2013-02-24 01:12:00,
2013-02-23 18:17:00,68.0,18.1,29.29,SSW,194,5.9,7.1,14,-99.99,,,0.00,32.15,rob ver 1B,2013-02-24 01:17:00,
2013-02-23 18:22:00,67.6,19.2,29.29,SSW,198,6.5,7.9,15,-99.99,,,0.00,21,rob ver 1A,2013-02-24 01:22:00,
2013-02-23 18:27:00,67.2,19.2,29.29,SSW,194,5.8,7.3,15,-99.99,,,0.00,8.53,rob ver 1A,2013-02-24 01:27:00,
2013-02-23 18:32:00,66.7,19.3,29.29,SSW,193,5.7,6.5,16,-99.99,,,0.00,4.757,rob ver 1A,2013-02-24 01:32:00,
2013-02-23 18:37:00,66.2,19.5,29.29,SSW,192,5.2,6.4,16,-99.99,,,0.00,2.953,rob ver 1A,2013-02-24 01:37:00,
2013-02-23 18:42:00,65.8,19.6,29.29,SSW,194,4.4,5.1,16,-99.99,,,0.00,1.312,rob ver 1B,2013-02-24 01:42:00,
2013-02-23 18:47:00,65.2,19.9,29.29,SSW,197,4.3,5.8,17,-99.99,,,0.00,.328,rob ver 1A,2013-02-24 01:47:00,
2013-02-23 18:52:00,64.8,20.0,29.29,SSW,199,5.5,6.3,17,-99.99,,,0.00,0,rob ver 1A,2013-02-24 01:52:00,
2013-02-23 18:57:00,64.7,20.3,29.29,SSW,193,5.8,6.8,18,-99.99,,,0.00,0,rob ver 1A,2013-02-24 01:57:00,
2013-02-23 19:02:00,64.2,20.5,29.29,SSW,198,5.5,6.1,18,-99.99,,,0.00,0,rob ver 1A,2013-02-24 02:02:00,
2013-02-23 19:07:00,63.8,20.9,29.29,SSW,193,7.3,8.1,19,-99.99,,,0.00,0,rob ver 1A,2013-02-24 02:07:00,
2013-02-23 19:12:00,63.7,21.1,29.29,SSW,192,5.5,6.7,19,-99.99,,,0.00,0,rob ver 1A,2013-02-24 02:12:00,
2013-02-23 19:18:00,63.3,21.3,29.29,South,188,5.7,7.9,19,-99.99,,,0.00,0,rob ver 1A,2013-02-24 02:18:00,
2013-02-23 19:23:00,63.9,21.4,29.29,South,186,9.4,11.3,19,-99.99,,,0.00,0,rob ver 1B,2013-02-24 02:23:00,
2013-02-23 19:28:00,63.5,21.8,29.29,South,189,8.1,9.8,20,-99.99,,,0.00,0,rob ver 1A,2013-02-24 02:28:00,
2013-02-23 19:33:00,63.1,22.1,29.29,SSW,195,8.1,9.9,20,-99.99,,,0.00,0,rob ver 1A,2013-02-24 02:33:00,
2013-02-23 19:38:00,62.8,22.3,29.29,SSW,200,7.3,8.5,21,-99.99,,,0.00,0,rob ver 1A,2013-02-24 02:38:00,
2013-02-23 19:43:00,62.3,22.2,29.29,SSW,197,8.4,9.7,21,-99.99,,,0.00,0,rob ver 1A,2013-02-24 02:43:00,
2013-02-23 19:48:00,61.9,22.4,29.29,SSW,198,7.9,9.4,21,-99.99,,,0.00,0,rob ver 1A,2013-02-24 02:48:00,
2013-02-23 19:53:00,61.6,22.5,29.29,SSW,201,8.0,9.4,22,-99.99,,,0.00,0,rob ver 1A,2013-02-24 02:53:00,
2013-02-23 19:58:00,61.4,22.6,29.32,SSW,196,7.2,9.1,22,-99.99,,,0.00,0,rob ver 1A,2013-02-24 02:58:00,
2013-02-23 20:03:00,61.2,22.4,29.32,SSW,197,7.3,8.5,22,-99.99,,,0.00,0,rob ver 1A,2013-02-24 03:03:00,
2013-02-23 20:08:00,61.0,22.1,29.32,SSW,198,7.9,9.0,22,-99.99,,,0.00,0,rob ver 1A,2013-02-24 03:08:00,
2013-02-23 20:13:00,60.9,22.0,29.29,SSW,193,8.0,9.5,22,-99.99,,,0.00,0,rob ver 1A,2013-02-24 03:13:00,
2013-02-23 20:18:00,60.6,22.3,29.32,SSW,197,7.3,8.4,22,-99.99,,,0.00,0,rob ver 1A,2013-02-24 03:18:00,
2013-02-23 20:23:00,60.4,22.5,29.29,SSW,193,7.4,9.2,23,-99.99,,,0.00,0,rob ver 1A,2013-02-24 03:23:00,
2013-02-23 20:28:00,60.2,22.5,29.32,SSW,193,7.0,8.7,23,-99.99,,,0.00,0,rob ver 1A,2013-02-24 03:28:00,
2013-02-23 20:33:00,59.9,22.4,29.32,SSW,192,5.7,6.8,23,-99.99,,,0.00,0,rob ver 1A,2013-02-24 03:33:00,
2013-02-23 20:38:00,59.6,22.4,29.32,SSW,193,6.1,7.2,23,-99.99,,,0.00,0,rob ver 1A,2013-02-24 03:38:00,
2013-02-23 20:43:00,59.2,22.2,29.32,SSW,201,6.3,7.4,23,-99.99,,,0.00,0,rob ver 1A,2013-02-24 03:43:00,
2013-02-23 20:48:00,59.0,22.0,29.32,SSW,206,6.6,7.8,23,-99.99,,,0.00,0,rob ver 1A,2013-02-24 03:48:00,
2013-02-23 20:54:00,58.8,21.9,29.32,SSW,204,7.4,8.8,23,-99.99,,,0.00,0,rob ver 1A,2013-02-24 03:54:00,
2013-02-23 20:59:00,58.5,21.9,29.32,SSW,207,8.1,9.3,24,-99.99,,,0.00,0,rob ver 1A,2013-02-24 03:59:00,
2013-02-23 21:04:00,58.6,22.1,29.32,SSW,209,8.3,9.4,24,-99.99,,,0.00,0,rob ver 1A,2013-02-24 04:04:00,
2013-02-23 21:09:00,58.6,22.3,29.32,SSW,211,8.4,10.0,24,-99.99,,,0.00,0,rob ver 1A,2013-02-24 04:09:00,
2013-02-23 21:14:00,58.5,22.5,29.32,SSW,209,9.3,10.7,24,-99.99,,,0.00,0,rob ver 1A,2013-02-24 04:14:00,
2013-02-23 21:19:00,58.2,22.4,29.32,SSW,203,9.5,10.8,24,-99.99,,,0.00,0,rob ver 1A,2013-02-24 04:19:00,
2013-02-23 21:24:00,57.9,22.4,29.32,SSW,199,10.4,12.3,25,-99.99,,,0.00,0,rob ver 1A,2013-02-24 04:24:00,
2013-02-23 21:29:00,58.0,22.5,29.32,SSW,196,9.2,10.3,24,-99.99,,,0.00,0,rob ver 1A,2013-02-24 04:29:00,
2013-02-23 21:34:00,57.7,22.5,29.32,SSW,201,9.4,11.5,25,-99.99,,,0.00,0,rob ver 1A,2013-02-24 04:34:00,
2013-02-23 21:39:00,57.6,22.6,29.32,SSW,209,9.4,11.5,25,-99.99,,,0.00,0,rob ver 1A,2013-02-24 04:39:00,
2013-02-23 21:44:00,57.7,22.7,29.32,SSW,207,8.4,10.4,25,-99.99,,,0.00,0,rob ver 1A,2013-02-24 04:44:00,
2013-02-23 21:49:00,57.6,22.6,29.35,SW,216,7.7,10.4,25,-99.99,,,0.00,0,rob ver 1A,2013-02-24 04:49:00,
2013-02-23 21:54:00,57.3,22.5,29.32,SSW,211,7.7,9.2,25,-99.99,,,0.00,0,rob ver 1A,2013-02-24 04:54:00,
2013-02-23 21:59:00,57.3,22.5,29.35,SSW,213,6.8,8.2,25,-99.99,,,0.00,0,rob ver 1A,2013-02-24 04:59:00,
2013-02-23 22:00:00,57.3,22.5,29.35,SW,215,6.1,7.4,25,-99.99,,,0.00,0,rob ver 1A,2013-02-24 05:00:00,
2013-02-23 22:02:00,57.3,22.4,29.35,SW,214,6.7,8.1,25,-99.99,,,0.00,0,rob ver 1B,2013-02-24 05:02:00,
2013-02-23 22:04:00,57.3,22.4,29.35,SSW,212,6.7,8.8,25,-99.99,,,0.00,0,rob ver 1B,2013-02-24 05:04:00,
2013-02-23 22:09:00,57.2,22.3,29.35,SSW,209,7.0,8.6,25,-99.99,,,0.00,0,rob ver 1A,2013-02-24 05:09:00,
2013-02-23 22:14:00,56.9,22.3,29.35,SSW,207,6.5,7.7,26,-99.99,,,0.00,0,rob ver 1A,2013-02-24 05:14:00,
2013-02-23 22:19:00,56.4,22.4,29.35,SSW,199,6.4,7.5,26,-99.99,,,0.00,0,rob ver 1A,2013-02-24 05:19:00,
2013-02-23 22:24:00,56.4,22.3,29.35,SSW,211,4.0,5.4,26,-99.99,,,0.00,0,rob ver 1A,2013-02-24 05:24:00,
2013-02-23 22:29:00,56.3,22.3,29.35,West,265,3.3,4.4,26,-99.99,,,0.00,0,rob ver 1A,2013-02-24 05:29:00,
2013-02-23 22:34:00,55.7,22.4,29.35,NW,316,3.0,3.5,27,-99.99,,,0.00,0,rob ver 1A,2013-02-24 05:34:00,
2013-02-23 22:39:00,55.3,22.4,29.35,WNW,297,3.3,4.1,27,-99.99,,,0.00,0,rob ver 1A,2013-02-24 05:39:00,
2013-02-23 22:44:00,56.8,22.3,29.35,West,263,4.6,5.7,25,-99.99,,,0.00,0,rob ver 1A,2013-02-24 05:44:00,
2013-02-23 22:50:00,57.0,22.1,29.35,WSW,239,6.8,8.5,25,-99.99,,,0.00,0,rob ver 1A,2013-02-24 05:50:00,
2013-02-23 22:55:00,57.1,22.2,29.35,SW,228,4.4,5.8,25,-99.99,,,0.00,0,rob ver 1A,2013-02-24 05:55:00,
2013-02-23 23:00:00,56.8,22.2,29.35,WSW,242,3.8,4.5,25,-99.99,,,0.00,0,rob ver 1A,2013-02-24 06:00:00,
2013-02-23 23:05:00,56.9,22.1,29.35,WSW,240,3.6,4.1,25,-99.99,,,0.00,0,rob ver 1A,2013-02-24 06:05:00,
2013-02-23 23:10:00,56.6,22.1,29.35,WSW,237,3.4,4.9,26,-99.99,,,0.00,0,rob ver 1A,2013-02-24 06:10:00,
2013-02-23 23:15:00,56.2,22.1,29.35,SW,214,3.8,4.6,26,-99.99,,,0.00,0,rob ver 1A,2013-02-24 06:15:00,
2013-02-23 23:20:00,55.7,22.1,29.35,WSW,241,3.8,4.2,27,-99.99,,,0.00,0,rob ver 1A,2013-02-24 06:20:00,
2013-02-23 23:25:00,55.0,22.2,29.35,WSW,257,4.3,5.1,27,-99.99,,,0.00,0,rob ver 1A,2013-02-24 06:25:00,
2013-02-23 23:30:00,55.2,22.4,29.35,WSW,255,3.5,5.1,27,-99.99,,,0.00,0,rob ver 1A,2013-02-24 06:30:00,
2013-02-23 23:35:00,55.8,22.5,29.35,West,273,4.2,5.1,27,-99.99,,,0.00,0,rob ver 1A,2013-02-24 06:35:00,
2013-02-23 23:40:00,55.2,22.8,29.35,SW,218,4.3,5.1,28,-99.99,,,0.00,0,rob ver 1A,2013-02-24 06:40:00,
2013-02-23 23:45:00,54.6,22.7,29.35,SSW,213,3.8,4.8,28,-99.99,,,0.00,0,rob ver 1A,2013-02-24 06:45:00,
2013-02-23 23:50:00,54.6,22.8,29.35,SW,221,3.7,4.8,28,-99.99,,,0.00,0,rob ver 1A,2013-02-24 06:50:00,
2013-02-23 23:55:00,53.9,22.7,29.35,NNW,335,2.2,2.8,29,-99.99,,,0.00,0,rob ver 1A,2013-02-24 06:55:00,